createdAt,value
2023-03-22T00:00:30.302Z,8.85
2023-03-22T00:02:59.681Z,8.77
2023-03-22T00:05:27.610Z,11.98
2023-03-22T00:07:58.459Z,7.45
2023-03-22T00:10:27.605Z,8.90
2023-03-22T00:12:56.371Z,9.02
2023-03-22T00:15:26.884Z,7.88
2023-03-22T00:17:55.594Z,9.57
2023-03-22T00:20:25.014Z,8.27
2023-03-22T00:22:53.953Z,6.32
2023-03-22T00:25:21.861Z,9.93
2023-03-22T00:27:50.233Z,9.38
2023-03-22T00:30:19.183Z,11.13
2023-03-22T00:32:47.205Z,8.03
2023-03-22T00:35:15.333Z,6.60
2023-03-22T00:37:45.771Z,8.57
2023-03-22T00:42:44.570Z,8.18
2023-03-22T00:45:14.025Z,7.85
2023-03-22T00:47:42.189Z,8.95
2023-03-22T00:50:11.178Z,8.43
2023-03-22T00:52:40.227Z,9.02
2023-03-22T00:55:10.136Z,6.53
2023-03-22T00:57:38.617Z,8.35
2023-03-22T01:00:13.628Z,9.60
2023-03-22T01:02:42.604Z,7.32
2023-03-22T01:05:16.589Z,7.78
2023-03-22T01:07:45.089Z,7.90
2023-03-22T01:10:14.653Z,6.65
2023-03-22T01:15:12.351Z,7.15
2023-03-22T01:17:41.127Z,7.43
2023-03-22T01:20:11.747Z,7.47
2023-03-22T01:22:40.589Z,8.68
2023-03-22T01:25:09.483Z,8.70
2023-03-22T01:27:40.213Z,6.35
2023-03-22T01:32:37.889Z,7.40
2023-03-22T01:35:06.948Z,7.95
2023-03-22T01:37:35.708Z,7.82
2023-03-22T01:40:04.342Z,9.20
2023-03-22T01:42:33.933Z,7.10
2023-03-22T01:45:41.213Z,7.70
2023-03-22T01:48:17.500Z,7.25
2023-03-22T01:50:50.700Z,7.43
2023-03-22T01:53:24.077Z,8.20
2023-03-22T01:55:56.252Z,7.32
2023-03-22T01:58:35.388Z,8.35
2023-03-22T02:01:08.653Z,7.40
2023-03-22T02:03:50.076Z,12.65
2023-03-22T02:06:18.524Z,8.18
2023-03-22T02:08:53.543Z,7.63
2023-03-22T02:11:30.738Z,6.97
2023-03-22T02:14:27.357Z,11.13
2023-03-22T02:17:15.491Z,8.45
2023-03-22T02:20:20.550Z,8.50
2023-03-22T02:23:07.314Z,7.72
2023-03-22T02:26:05.454Z,7.82
2023-03-22T02:28:43.756Z,7.82
2023-03-22T02:31:38.835Z,8.23
2023-03-22T02:34:38.880Z,8.07
2023-03-22T02:37:52.392Z,7.68
2023-03-22T02:40:33.052Z,9.60
2023-03-22T02:43:15.181Z,12.38
2023-03-22T02:45:48.245Z,8.27
2023-03-22T02:48:20.415Z,8.35
2023-03-22T02:50:54.578Z,7.82
2023-03-22T02:53:31.284Z,6.93
2023-03-22T02:56:03.332Z,8.73
2023-03-22T02:58:37.477Z,13.45
2023-03-22T03:01:09.781Z,9.10
2023-03-22T03:03:40.997Z,8.88
2023-03-22T03:06:13.617Z,7.93
2023-03-22T03:08:43.836Z,6.45
2023-03-22T03:11:14.533Z,7.57
2023-03-22T03:13:48.770Z,7.00
2023-03-22T03:16:18.888Z,7.50
2023-03-22T03:18:56.005Z,8.10
2023-03-22T03:21:36.107Z,8.18
2023-03-22T03:24:21.143Z,9.85
2023-03-22T03:26:57.407Z,9.98
2023-03-22T03:29:36.649Z,10.27
2023-03-22T03:32:10.727Z,9.05
2023-03-22T03:34:46.179Z,9.20
2023-03-22T03:37:18.966Z,8.70
2023-03-22T03:39:58.250Z,9.45
2023-03-22T03:42:31.528Z,9.23
2023-03-22T03:45:03.499Z,12.15
2023-03-22T03:47:32.968Z,8.50
2023-03-22T03:50:01.332Z,9.13
2023-03-22T03:52:31.884Z,9.35
2023-03-22T03:55:00.909Z,9.80
2023-03-22T03:57:39.072Z,9.70
2023-03-22T04:00:10.192Z,8.93
2023-03-22T04:03:07.436Z,8.48
2023-03-22T04:06:03.897Z,9.02
2023-03-22T04:08:38.355Z,9.80
2023-03-22T04:11:08.075Z,9.07
2023-03-22T04:13:39.433Z,10.63
2023-03-22T04:16:15.394Z,10.57
2023-03-22T04:18:44.614Z,8.90
2023-03-22T04:21:16.546Z,9.95
2023-03-22T04:23:52.781Z,9.45
2023-03-22T04:26:22.742Z,9.90
2023-03-22T04:29:09.573Z,10.15
2023-03-22T04:31:45.070Z,11.27
2023-03-22T04:34:33.038Z,9.52
2023-03-22T04:37:12.563Z,9.18
2023-03-22T04:40:02.493Z,11.30
2023-03-22T04:42:52.614Z,10.98
2023-03-22T04:45:32.520Z,10.05
2023-03-22T04:48:08.264Z,10.05
2023-03-22T04:50:42.972Z,9.93
2023-03-22T04:53:13.353Z,10.98
2023-03-22T04:55:42.980Z,8.75
2023-03-22T04:58:11.656Z,10.25
2023-03-22T05:00:43.094Z,9.88
2023-03-22T05:03:13.370Z,11.98
2023-03-22T05:05:53.359Z,10.65
2023-03-22T05:08:25.934Z,9.23
2023-03-22T05:11:22.807Z,10.38
2023-03-22T05:14:09.819Z,10.27
2023-03-22T05:16:41.525Z,12.38
2023-03-22T05:19:14.180Z,10.20
2023-03-22T05:21:58.803Z,8.65
2023-03-22T05:24:49.436Z,9.77
2023-03-22T05:27:31.937Z,13.77
2023-03-22T05:30:18.400Z,9.73
2023-03-22T05:33:00.636Z,8.75
2023-03-22T05:35:29.430Z,9.85
2023-03-22T05:37:58.973Z,10.63
2023-03-22T05:40:31.963Z,8.82
2023-03-22T05:43:02.295Z,11.23
2023-03-22T05:45:33.264Z,10.02
2023-03-22T05:48:16.995Z,9.35
2023-03-22T05:50:46.571Z,11.40
2023-03-22T05:53:14.989Z,8.05
2023-03-22T05:56:01.423Z,11.00
2023-03-22T05:58:51.875Z,8.32
2023-03-22T06:01:23.801Z,9.52
2023-03-22T06:04:12.618Z,10.30
2023-03-22T06:06:55.376Z,11.13
2023-03-22T06:09:45.069Z,10.45
2023-03-22T06:12:32.429Z,10.40
2023-03-22T06:15:10.150Z,13.32
2023-03-22T06:20:32.792Z,8.75
2023-03-22T06:23:07.448Z,12.70
2023-03-22T06:25:40.472Z,9.07
2023-03-22T06:28:13.188Z,8.73
2023-03-22T06:30:49.609Z,8.98
2023-03-22T06:33:41.132Z,9.75
2023-03-22T06:36:25.040Z,9.52
2023-03-22T06:39:08.039Z,10.77
2023-03-22T06:41:39.164Z,13.90
2023-03-22T06:44:08.293Z,7.40
2023-03-22T06:46:53.608Z,7.93
2023-03-22T06:49:44.802Z,10.02
2023-03-22T06:52:27.936Z,9.27
2023-03-22T06:54:58.001Z,7.85
2023-03-22T06:57:29.140Z,7.75
2023-03-22T07:00:00.807Z,9.32
2023-03-22T07:02:29.381Z,11.25
2023-03-22T07:05:33.368Z,10.07
2023-03-22T07:08:04.646Z,9.27
2023-03-22T07:10:38.581Z,9.77
2023-03-22T07:13:08.084Z,8.95
2023-03-22T07:15:37.848Z,7.75
2023-03-22T07:18:15.836Z,8.95
2023-03-22T07:20:47.282Z,9.05
2023-03-22T07:23:18.616Z,14.43
2023-03-22T07:25:52.056Z,7.75
2023-03-22T07:28:30.014Z,10.48
2023-03-22T07:31:03.183Z,10.70
2023-03-22T07:33:38.237Z,6.93
2023-03-22T07:36:10.077Z,9.35
2023-03-22T07:38:41.094Z,7.68
2023-03-22T07:41:15.499Z,7.57
2023-03-22T07:44:17.915Z,7.13
2023-03-22T07:47:01.885Z,10.80
2023-03-22T07:49:39.203Z,10.00
2023-03-22T07:52:31.093Z,9.35
2023-03-22T07:55:02.053Z,10.63
2023-03-22T07:57:30.429Z,10.32
2023-03-22T08:00:02.523Z,8.32
2023-03-22T08:02:57.378Z,8.10
2023-03-22T08:05:45.271Z,9.60
2023-03-22T08:08:16.794Z,7.05
2023-03-22T08:10:52.141Z,9.63
2023-03-22T08:13:21.139Z,9.95
2023-03-22T08:15:49.311Z,6.28
2023-03-22T08:18:21.274Z,8.20
2023-03-22T08:20:56.291Z,9.77
2023-03-22T08:23:41.369Z,7.32
2023-03-22T08:26:24.277Z,7.15
2023-03-22T08:28:54.401Z,10.23
2023-03-22T08:31:25.209Z,9.05
2023-03-22T08:33:53.514Z,9.13
2023-03-22T08:36:23.834Z,6.88
2023-03-22T08:39:01.960Z,9.27
2023-03-22T08:41:45.486Z,6.18
2023-03-22T08:44:15.740Z,6.13
2023-03-22T08:46:44.129Z,6.82
2023-03-22T08:49:17.546Z,7.47
2023-03-22T08:51:58.702Z,5.65
2023-03-22T08:54:43.606Z,6.00
2023-03-22T08:57:34.096Z,5.85
2023-03-22T09:00:33.978Z,7.50
2023-03-22T09:05:45.624Z,7.10
2023-03-22T09:08:20.084Z,5.60
2023-03-22T09:10:53.440Z,8.25
2023-03-22T09:13:26.831Z,6.40
2023-03-22T09:16:02.602Z,5.90
2023-03-22T09:18:37.721Z,4.72
2023-03-22T09:21:18.139Z,6.18
2023-03-22T09:23:56.906Z,6.25
2023-03-22T09:26:42.009Z,5.57
2023-03-22T09:29:13.760Z,4.65
2023-03-22T09:31:43.903Z,4.72
2023-03-22T09:34:20.142Z,6.50
2023-03-22T09:36:52.912Z,6.47
2023-03-22T09:39:27.909Z,6.85
2023-03-22T09:42:03.059Z,4.60
2023-03-22T09:44:36.372Z,6.13
2023-03-22T09:47:14.828Z,5.03
2023-03-22T09:49:53.815Z,5.93
2023-03-22T09:52:23.091Z,5.40
2023-03-22T09:54:53.526Z,5.87
2023-03-22T09:57:29.591Z,4.85
2023-03-22T10:00:15.594Z,5.18
2023-03-22T10:03:04.031Z,6.65
2023-03-22T10:05:40.064Z,8.02
2023-03-22T10:08:38.465Z,5.18
2023-03-22T10:11:20.705Z,8.30
2023-03-22T10:14:00.271Z,6.18
2023-03-22T10:16:35.860Z,6.78
2023-03-22T10:19:11.290Z,10.48
2023-03-22T10:21:40.480Z,6.80
2023-03-22T10:24:14.207Z,4.90
2023-03-22T10:26:45.943Z,6.13
2023-03-22T10:29:24.595Z,4.32
2023-03-22T10:31:59.158Z,4.00
2023-03-22T10:34:33.906Z,6.15
2023-03-22T10:37:06.186Z,4.55
2023-03-22T10:39:39.839Z,6.05
2023-03-22T10:42:13.814Z,4.68
2023-03-22T10:44:49.909Z,4.00
2023-03-22T10:47:27.813Z,4.68
2023-03-22T10:49:59.789Z,4.03
2023-03-22T10:52:39.594Z,4.18
2023-03-22T10:55:15.283Z,4.03
2023-03-22T10:57:49.659Z,6.50
2023-03-22T11:00:19.977Z,6.97
2023-03-22T11:02:55.136Z,3.30
2023-03-22T11:05:28.721Z,5.53
2023-03-22T11:07:58.904Z,4.30
2023-03-22T11:10:32.851Z,4.05
2023-03-22T11:13:21.578Z,3.75
2023-03-22T11:15:59.815Z,4.00
2023-03-22T11:18:32.531Z,4.68
2023-03-22T11:21:03.504Z,4.35
2023-03-22T11:23:34.436Z,6.15
2023-03-22T11:26:10.355Z,3.70
2023-03-22T11:28:44.921Z,4.97
2023-03-22T11:31:19.124Z,4.93
2023-03-22T11:34:04.551Z,4.32
2023-03-22T11:39:17.439Z,8.65
2023-03-22T11:41:47.109Z,5.15
2023-03-22T11:44:19.476Z,5.18
2023-03-22T11:46:56.253Z,5.63
2023-03-22T11:49:36.192Z,5.88
2023-03-22T11:52:13.454Z,4.18
2023-03-22T11:54:44.963Z,3.88
2023-03-22T11:57:17.287Z,3.70
2023-03-22T11:59:56.476Z,5.30
2023-03-22T12:02:28.232Z,5.85
2023-03-22T12:05:06.701Z,3.75
2023-03-22T12:07:38.748Z,4.72
2023-03-22T12:10:14.929Z,3.60
2023-03-22T12:12:50.510Z,5.50
2023-03-22T12:15:24.087Z,3.53
2023-03-22T12:17:58.746Z,5.28
2023-03-22T12:20:39.916Z,6.45
2023-03-22T12:23:17.016Z,4.70
2023-03-22T12:25:52.683Z,17.50
2023-03-22T12:28:30.705Z,5.50
2023-03-22T12:31:01.021Z,4.88
2023-03-22T12:33:33.002Z,5.22
2023-03-22T12:36:05.329Z,6.80
2023-03-22T12:38:42.376Z,5.65
2023-03-22T12:41:13.855Z,5.53
2023-03-22T12:43:50.236Z,4.43
2023-03-22T12:46:23.566Z,4.53
2023-03-22T12:48:57.114Z,4.65
2023-03-22T12:51:26.603Z,4.25
2023-03-22T12:53:58.987Z,5.47
2023-03-22T12:56:30.017Z,2.63
2023-03-22T12:59:04.155Z,4.03
2023-03-22T13:01:36.535Z,4.30
2023-03-22T13:04:32.204Z,3.42
2023-03-22T13:07:16.656Z,2.63
2023-03-22T13:09:47.925Z,3.75
2023-03-22T13:12:34.914Z,3.35
2023-03-22T13:15:41.230Z,3.83
2023-03-22T13:18:33.018Z,2.22
2023-03-22T13:21:16.332Z,4.00
2023-03-22T13:24:00.740Z,3.70
2023-03-22T13:26:36.842Z,5.25
2023-03-22T13:29:14.480Z,4.25
2023-03-22T13:31:51.765Z,4.40
2023-03-22T13:34:22.000Z,3.67
2023-03-22T13:36:55.365Z,3.88
2023-03-22T13:39:28.236Z,3.13
2023-03-22T13:42:11.132Z,3.58
2023-03-22T13:44:43.068Z,3.28
2023-03-22T13:47:35.110Z,4.40
2023-03-22T13:52:49.660Z,2.85
2023-03-22T13:55:41.611Z,2.72
2023-03-22T13:58:14.808Z,3.83
2023-03-22T14:00:53.074Z,2.83
2023-03-22T14:03:30.656Z,2.45
2023-03-22T14:06:07.335Z,2.15
2023-03-22T14:08:39.109Z,1.73
2023-03-22T14:11:30.326Z,3.38
2023-03-22T14:14:04.891Z,3.47
2023-03-22T14:16:41.490Z,2.13
2023-03-22T14:19:21.056Z,2.90
